Dale, Wisconsin
Current Conditions -  °F | °C
As of 11:35 PM on Wednesday 22 Oct 2014 (Local Time) from KATW Reporting Station
Clear Clear  
Wind Chill: 35°   Ceiling: Unl
Heat Index: 39°   Visibility: 10mi
Dew Point: 37°   Wind: 6mph
Humidity: 93%   Direction: 160°SSE
Pressure: 30.23"   Gusts: NA
Location:  44.27°N, 88.68°W
Report Text: KATW 230435Z AUTO 16005KT 10SM CLR 04/03 A3023 RMK AO2
Loading
Personal Weather Stations






























Interactive Weather Map
Tropical Storm Tracking
New forecast layout! Learn more

10-Day Weather Forecast

Advertisements
Track Severe Weather on mobile